Westbrook, Minnesota
Current Conditions -  °F | °C
As of 3:52 AM on Sunday 23 Nov 2014 (Local Time) from KTKC Reporting Station
Scattered Clouds Scattered Clouds  
Wind Chill: 39°   Ceiling: Unl
Heat Index: 45°   Visibility: 7mi
Dew Point: 42°   Wind: 12mph
Humidity: 92%   Direction: 210°SSW
Pressure: 29.39"   Gusts: NA
Location:  44.04°N, 95.44°W
Report Text: KTKC 230952Z AUTO 21010KT 7SM SCT100 07/06 A2939 RMK AO2 T00700058
Loading
Personal Weather Stations






























Interactive Weather Map New forecast layout! Learn more

10-Day Weather Forecast

Advertisements
Track Severe Weather on mobile